Bookmark and Share
Track history (hours):
 

Doris Moran

More information available from US FCC via Universal Licensing System and Coast Guard Vessel Documentation Center.

Last reported at 2014-Apr-18 01:24 UTC. Time now 2014-Apr-21 12:23 UTC.
Position N 41°10' W 073°55'.

Length 151 m; draft 15 m.

Type: Other ship. MMSI: 366939790.

NotesDate/timePositionNaut miles runAvg speedWind from/ knotsBaromVisibWave heightAir tempDewpointWater temp
2014-Apr-18 01:24N 41°10' W 073°55'27 9.3
2014-Apr-17 22:33N 40°44' W 074°01'5 5.3
2014-Apr-17 21:33N 40°47' W 073°55'7 6.5
2014-Apr-17 20:30N 40°49' W 073°47'22 4.4
2014-Apr-17 15:33N 41°01' W 073°23'2411.7
2014-Apr-17 13:32N 41°05' W 072°52'1111.5
2014-Apr-17 12:34N 41°08' W 072°37'1111.3
2014-Apr-17 11:34N 41°11' W 072°23'1110.5
2014-Apr-17 10:33N 41°14' W 072°09'9 9.1
2014-Apr-17 09:34N 41°15' W 071°57'10 9.7
2014-Apr-17 08:34N 41°16' W 071°45'1010.2
2014-Apr-17 07:33N 41°18' W 071°31'1110.7
2014-Apr-17 06:34N 41°20' W 071°17'1111.0
2014-Apr-17 05:33N 41°24' W 071°04'59 7.0
2014-Apr-16 21:09N 42°23' W 070°51'5 7.5
2014-Apr-16 20:31N 42°21' W 070°56'5 5.3
2014-Apr-16 19:33N 42°23' W 071°03'1 0.7
2014-Apr-16 18:33N 42°23' W 071°04'0 0.0
2014-Apr-16 17:33N 42°23' W 071°04'0 0.0
2014-Apr-16 16:33N 42°23' W 071°04'0 0.0
2014-Apr-16 15:33N 42°23' W 071°04'0 0.0
2014-Apr-16 14:33N 42°23' W 071°04'0 0.0
2014-Apr-16 13:33N 42°23' W 071°04'0 0.0
2014-Apr-16 12:33N 42°23' W 071°04'0 0.0
2014-Apr-16 11:33N 42°23' W 071°04'0 0.0
2014-Apr-16 10:33N 42°23' W 071°04'0 0.0
2014-Apr-16 09:33N 42°23' W 071°04'0 0.0
2014-Apr-16 08:33N 42°23' W 071°04'0 0.0
2014-Apr-16 07:33N 42°23' W 071°04'0 0.0
2014-Apr-16 06:33N 42°23' W 071°04'0 0.0
2014-Apr-16 05:33N 42°23' W 071°04'0 0.0
2014-Apr-16 04:33N 42°23' W 071°04'0 0.0
2014-Apr-16 03:33N 42°23' W 071°04'0 0.0
2014-Apr-16 02:16N 42°23' W 071°04'0 0.0
2014-Apr-16 01:33N 42°23' W 071°04'0 0.0
2014-Apr-16 00:33N 42°23' W 071°04'0 0.0
2014-Apr-15 23:33N 42°23' W 071°04'0 0.0
2014-Apr-15 22:33N 42°23' W 071°04'0 0.0
2014-Apr-15 21:33N 42°23' W 071°04'0 0.0
2014-Apr-15 20:33N 42°23' W 071°04'0 0.0
2014-Apr-15 19:32N 42°23' W 071°04'0 0.0
2014-Apr-15 18:31N 42°23' W 071°04'0 0.0
2014-Apr-15 17:33N 42°23' W 071°04'0 0.0
2014-Apr-15 16:33N 42°23' W 071°04'0 0.0
2014-Apr-15 15:33N 42°23' W 071°04'0 0.0
2014-Apr-15 14:33N 42°23' W 071°04'0 0.0
2014-Apr-15 12:34N 42°23' W 071°04'0 0.0
2014-Apr-15 11:34N 42°23' W 071°04'0 0.1
2014-Apr-15 10:31N 42°23' W 071°04'0 0.0
2014-Apr-15 08:33N 42°23' W 071°04'0 0.0
2014-Apr-15 05:33N 42°23' W 071°04'0 0.0
2014-Apr-15 02:34N 42°23' W 071°04'0 0.0
2014-Apr-15 00:33N 42°23' W 071°04'0 0.0
2014-Apr-14 23:33N 42°23' W 071°04'0 0.0
2014-Apr-14 22:32N 42°23' W 071°04'0 0.0
2014-Apr-14 21:32N 42°23' W 071°04'0 0.0
2014-Apr-14 20:34N 42°23' W 071°04'0 0.0
2014-Apr-14 19:34N 42°23' W 071°04'0 0.0
2014-Apr-14 18:33N 42°23' W 071°04'0 0.0
2014-Apr-14 17:34N 42°23' W 071°04'0 0.0
2014-Apr-14 16:32N 42°23' W 071°04'0 0.0
2014-Apr-14 14:32N 42°23' W 071°04'1 1.3
2014-Apr-14 13:34N 42°22' W 071°03'14 6.9
2014-Apr-14 11:34N 42°20' W 070°44'9 8.9
2014-Apr-14 10:34N 42°14' W 070°35'30 6.1
2014-Apr-14 05:33N 41°43' W 070°38'41 5.8
2014-Apr-13 22:30N 41°18' W 071°21'11 9.0
2014-Apr-13 21:16N 41°18' W 071°36'7 9.3
2014-Apr-13 20:33N 41°16' W 071°45'1110.1
2014-Apr-13 19:31N 41°14' W 071°58'1111.2
2014-Apr-13 18:34N 41°13' W 072°12'1111.4
2014-Apr-13 17:34N 41°10' W 072°27'10 9.9
2014-Apr-13 16:33N 41°11' W 072°40'9 8.9
2014-Apr-13 15:33N 41°12' W 072°52'5 4.6
2014-Apr-13 14:33N 41°16' W 072°55'1 1.3
2014-Apr-13 13:33N 41°18' W 072°54'0 0.0
2014-Apr-13 12:33N 41°18' W 072°54'0 0.0
2014-Apr-13 11:33N 41°18' W 072°54'0 0.0
2014-Apr-13 10:33N 41°18' W 072°54'0 0.0
2014-Apr-13 09:28N 41°18' W 072°54'0 0.0
2014-Apr-13 08:33N 41°18' W 072°54'0 0.0
2014-Apr-13 07:33N 41°18' W 072°54'0 0.0
2014-Apr-13 06:33N 41°18' W 072°54'0 0.0
2014-Apr-13 05:30N 41°18' W 072°54'0 0.0
2014-Apr-13 04:33N 41°18' W 072°54'0 0.0
2014-Apr-13 03:33N 41°18' W 072°54'0 0.0
2014-Apr-13 02:31N 41°18' W 072°54'0 0.0
2014-Apr-13 01:27N 41°18' W 072°54'0 0.0
2014-Apr-13 00:32N 41°18' W 072°54'0 0.0
2014-Apr-12 23:31N 41°18' W 072°54'0 0.0
2014-Apr-12 22:32N 41°18' W 072°54'0 0.0
2014-Apr-12 21:33N 41°18' W 072°54'0 0.0
2014-Apr-12 20:32N 41°18' W 072°54'0 0.0
2014-Apr-12 19:33N 41°18' W 072°54'0 0.0
2014-Apr-12 18:33N 41°18' W 072°54'0 0.0
2014-Apr-12 17:33N 41°18' W 072°54'0 0.0
2014-Apr-12 16:33N 41°18' W 072°54'0 0.0
2014-Apr-12 15:33N 41°18' W 072°54'0 0.3
2014-Apr-12 14:34N 41°17' W 072°55'3 2.8
2014-Apr-12 13:33N 41°15' W 072°55'5 5.5
2014-Apr-12 12:34N 41°10' W 072°58'8 8.1
2014-Apr-12 11:34N 41°05' W 073°07'8 8.4
2014-Apr-12 10:33N 41°02' W 073°17'9 8.9
2014-Apr-12 09:34N 40°59' W 073°28'9 8.7
2014-Apr-12 08:33N 40°55' W 073°39'11 8.0
2014-Apr-12 07:07N 40°48' W 073°51'4 7.0
2014-Apr-12 06:33N 40°47' W 073°56'5 4.9
2014-Apr-12 05:33N 40°42' W 073°59'6 6.1
2014-Apr-12 04:33N 40°39' W 074°05'0 0.3
2014-Apr-12 03:33N 40°39' W 074°06'0 0.0
2014-Apr-12 02:33N 40°39' W 074°06'0 0.0
2014-Apr-12 01:33N 40°39' W 074°06'2 1.5
2014-Apr-12 00:33N 40°38' W 074°08'0 0.0
2014-Apr-11 23:33N 40°38' W 074°08'0 0.0
2014-Apr-11 22:33N 40°38' W 074°08'0 0.0
2014-Apr-11 21:33N 40°38' W 074°08'0 0.0
2014-Apr-11 20:33N 40°38' W 074°08'6 6.4
2014-Apr-11 19:33N 40°41' W 074°00'2 1.6
2014-Apr-11 18:33N 40°40' W 074°00'0 0.0
2014-Apr-11 17:33N 40°40' W 074°00'0 0.0
2014-Apr-11 16:33N 40°40' W 074°00'0 0.0
2014-Apr-11 15:33N 40°40' W 074°00'0 0.0
2014-Apr-11 14:33N 40°40' W 074°00'0 0.0
2014-Apr-11 13:33N 40°40' W 074°00'0 0.0
2014-Apr-11 12:33N 40°40' W 074°00'0 0.0
2014-Apr-11 11:33N 40°40' W 074°00'0 0.0
2014-Apr-11 10:33N 40°40' W 074°00'0 0.0
2014-Apr-11 09:33N 40°40' W 074°00'0 0.0
2014-Apr-11 08:33N 40°40' W 074°00'0 0.0
2014-Apr-11 07:33N 40°40' W 074°00'0 0.0
2014-Apr-11 06:33N 40°40' W 074°00'0 0.0
2014-Apr-11 05:33N 40°40' W 074°00'0 0.0
2014-Apr-11 04:33N 40°40' W 074°00'0 0.0
2014-Apr-11 03:33N 40°40' W 074°00'0 0.0
2014-Apr-11 02:33N 40°40' W 074°00'0 0.0
2014-Apr-11 01:33N 40°40' W 074°00'0 0.0
2014-Apr-11 00:33N 40°40' W 074°00'4 3.9
2014-Apr-10 23:33N 40°43' W 073°58'0 0.1
2014-Apr-10 22:34N 40°43' W 073°58'7 7.2
2014-Apr-10 21:33N 40°39' W 074°05'2 1.9
2014-Apr-10 20:33N 40°38' W 074°08'0 0.0
2014-Apr-10 19:33N 40°38' W 074°08'2 1.7
2014-Apr-10 18:33N 40°39' W 074°10'0 0.0
2014-Apr-10 17:33N 40°39' W 074°10'2 1.8
2014-Apr-10 16:33N 40°39' W 074°08'1 0.8
2014-Apr-10 15:33N 40°39' W 074°07'0 0.0
2014-Apr-10 14:33N 40°39' W 074°07'0 0.0
2014-Apr-10 13:30N 40°39' W 074°07'0 0.1
2014-Apr-10 12:33N 40°39' W 074°07'5 5.0
2014-Apr-10 11:33N 40°40' W 074°00'0 0.0
2014-Apr-10 10:33N 40°40' W 074°00'0 0.0
2014-Apr-10 09:33N 40°40' W 074°00'0 0.0
2014-Apr-10 08:33N 40°40' W 074°00'0 0.0
2014-Apr-10 07:33N 40°40' W 074°00'0 0.0
2014-Apr-10 06:33N 40°40' W 074°00'0 0.0
2014-Apr-10 05:33N 40°40' W 074°00'0 0.0
2014-Apr-10 04:33N 40°40' W 074°00'0 0.0
2014-Apr-10 03:33N 40°40' W 074°00'0 0.0
2014-Apr-10 02:33N 40°40' W 074°00'0 0.0
2014-Apr-10 01:33N 40°40' W 074°00'0 0.0
2014-Apr-10 00:33N 40°40' W 074°00'0 0.0
2014-Apr-09 23:33N 40°40' W 074°00'0 0.0
2014-Apr-09 22:33N 40°40' W 074°00'0 0.0
2014-Apr-09 21:33N 40°40' W 074°00'0 0.2
2014-Apr-09 20:33N 40°40' W 074°00'  

Dump ship's entire track history

sailing weather and tide predictions

Doris Moran — WRU2125 — position and weather